sensor_id;sensor_type;location;lat;lon;timestamp;P1;durP1;ratioP1;P2;durP2;ratioP2
64959;SDS011;51487;52.266;10.542;2023-04-24T00:00:54;2.28;;;1.30;;
64959;SDS011;51487;52.266;10.542;2023-04-24T00:03:22;1.27;;;1.10;;
64959;SDS011;51487;52.266;10.542;2023-04-24T00:05:48;1.45;;;1.15;;
64959;SDS011;51487;52.266;10.542;2023-04-24T00:08:14;2.40;;;1.23;;
64959;SDS011;51487;52.266;10.542;2023-04-24T00:10:40;1.27;;;1.15;;
64959;SDS011;51487;52.266;10.542;2023-04-24T00:13:06;2.15;;;1.30;;
64959;SDS011;51487;52.266;10.542;2023-04-24T00:15:32;1.23;;;1.13;;
64959;SDS011;51487;52.266;10.542;2023-04-24T00:17:58;1.20;;;1.10;;
64959;SDS011;51487;52.266;10.542;2023-04-24T00:20:23;2.00;;;1.30;;
64959;SDS011;51487;52.266;10.542;2023-04-24T00:22:49;1.30;;;1.20;;
64959;SDS011;51487;52.266;10.542;2023-04-24T00:25:14;2.15;;;1.30;;
64959;SDS011;51487;52.266;10.542;2023-04-24T00:27:40;4.00;;;1.25;;
64959;SDS011;51487;52.266;10.542;2023-04-24T00:30:06;1.50;;;1.23;;
64959;SDS011;51487;52.266;10.542;2023-04-24T00:32:32;1.42;;;1.30;;
64959;SDS011;51487;52.266;10.542;2023-04-24T00:34:58;2.35;;;1.27;;
64959;SDS011;51487;52.266;10.542;2023-04-24T00:37:26;2.10;;;1.35;;
64959;SDS011;51487;52.266;10.542;2023-04-24T00:39:51;1.63;;;1.40;;
64959;SDS011;51487;52.266;10.542;2023-04-24T00:42:17;1.30;;;1.20;;
64959;SDS011;51487;52.266;10.542;2023-04-24T00:44:42;1.10;;;1.10;;
64959;SDS011;51487;52.266;10.542;2023-04-24T00:47:08;1.52;;;1.30;;
64959;SDS011;51487;52.266;10.542;2023-04-24T00:49:36;3.85;;;1.50;;
64959;SDS011;51487;52.266;10.542;2023-04-24T00:52:02;1.30;;;1.20;;
64959;SDS011;51487;52.266;10.542;2023-04-24T00:54:32;2.45;;;1.20;;
64959;SDS011;51487;52.266;10.542;2023-04-24T00:56:58;3.58;;;1.30;;
64959;SDS011;51487;52.266;10.542;2023-04-24T00:59:23;1.30;;;1.13;;
64959;SDS011;51487;52.266;10.542;2023-04-24T01:01:49;1.48;;;1.38;;
64959;SDS011;51487;52.266;10.542;2023-04-24T01:04:16;1.58;;;1.20;;
64959;SDS011;51487;52.266;10.542;2023-04-24T01:06:43;1.63;;;1.42;;
64959;SDS011;51487;52.266;10.542;2023-04-24T01:09:10;2.20;;;1.33;;
64959;SDS011;51487;52.266;10.542;2023-04-24T01:11:37;2.17;;;1.50;;
64959;SDS011;51487;52.266;10.542;2023-04-24T01:14:03;1.70;;;1.50;;
64959;SDS011;51487;52.266;10.542;2023-04-24T01:16:29;1.85;;;1.30;;
64959;SDS011;51487;52.266;10.542;2023-04-24T01:18:55;1.20;;;1.10;;
64959;SDS011;51487;52.266;10.542;2023-04-24T01:21:20;3.47;;;1.42;;
64959;SDS011;51487;52.266;10.542;2023-04-24T01:23:52;2.10;;;1.50;;
64959;SDS011;51487;52.266;10.542;2023-04-24T01:26:18;1.83;;;1.20;;
64959;SDS011;51487;52.266;10.542;2023-04-24T01:28:45;1.98;;;1.20;;
64959;SDS011;51487;52.266;10.542;2023-04-24T01:31:11;2.75;;;1.52;;
64959;SDS011;51487;52.266;10.542;2023-04-24T01:33:37;1.70;;;1.40;;
64959;SDS011;51487;52.266;10.542;2023-04-24T01:36:03;2.35;;;1.40;;
64959;SDS011;51487;52.266;10.542;2023-04-24T01:38:29;2.42;;;1.40;;
64959;SDS011;51487;52.266;10.542;2023-04-24T01:40:55;2.03;;;1.30;;
64959;SDS011;51487;52.266;10.542;2023-04-24T01:43:20;2.92;;;1.48;;
64959;SDS011;51487;52.266;10.542;2023-04-24T01:45:47;3.08;;;1.30;;
64959;SDS011;51487;52.266;10.542;2023-04-24T01:48:12;2.63;;;1.45;;
64959;SDS011;51487;52.266;10.542;2023-04-24T01:50:38;1.45;;;1.10;;
64959;SDS011;51487;52.266;10.542;2023-04-24T01:53:04;1.77;;;1.20;;
64959;SDS011;51487;52.266;10.542;2023-04-24T01:55:30;1.55;;;1.30;;
64959;SDS011;51487;52.266;10.542;2023-04-24T01:57:56;2.10;;;1.30;;
64959;SDS011;51487;52.266;10.542;2023-04-24T02:00:24;1.40;;;1.30;;
64959;SDS011;51487;52.266;10.542;2023-04-24T02:02:50;1.55;;;1.20;;
64959;SDS011;51487;52.266;10.542;2023-04-24T02:05:15;1.30;;;1.20;;
64959;SDS011;51487;52.266;10.542;2023-04-24T02:07:41;2.30;;;1.30;;
64959;SDS011;51487;52.266;10.542;2023-04-24T02:10:07;3.28;;;1.38;;
64959;SDS011;51487;52.266;10.542;2023-04-24T02:12:33;1.30;;;1.20;;
64959;SDS011;51487;52.266;10.542;2023-04-24T02:14:58;1.40;;;1.30;;
64959;SDS011;51487;52.266;10.542;2023-04-24T02:17:24;1.58;;;1.25;;
64959;SDS011;51487;52.266;10.542;2023-04-24T02:19:50;4.00;;;1.40;;
64959;SDS011;51487;52.266;10.542;2023-04-24T02:22:15;1.30;;;1.20;;
64959;SDS011;51487;52.266;10.542;2023-04-24T02:24:41;3.63;;;1.45;;
64959;SDS011;51487;52.266;10.542;2023-04-24T02:27:07;1.77;;;1.40;;
64959;SDS011;51487;52.266;10.542;2023-04-24T02:29:32;2.30;;;1.50;;
64959;SDS011;51487;52.266;10.542;2023-04-24T02:31:58;2.22;;;1.55;;
64959;SDS011;51487;52.266;10.542;2023-04-24T02:34:24;1.60;;;1.50;;
64959;SDS011;51487;52.266;10.542;2023-04-24T02:36:49;5.05;;;1.90;;
64959;SDS011;51487;52.266;10.542;2023-04-24T02:39:15;3.83;;;1.77;;
64959;SDS011;51487;52.266;10.542;2023-04-24T02:41:43;2.72;;;1.75;;
64959;SDS011;51487;52.266;10.542;2023-04-24T02:44:09;3.40;;;1.80;;
64959;SDS011;51487;52.266;10.542;2023-04-24T02:46:35;3.15;;;1.75;;
64959;SDS011;51487;52.266;10.542;2023-04-24T02:49:00;4.40;;;2.13;;
64959;SDS011;51487;52.266;10.542;2023-04-24T02:51:26;4.35;;;1.60;;
64959;SDS011;51487;52.266;10.542;2023-04-24T02:53:52;3.45;;;1.70;;
64959;SDS011;51487;52.266;10.542;2023-04-24T02:56:18;2.58;;;1.70;;
64959;SDS011;51487;52.266;10.542;2023-04-24T02:58:43;5.80;;;2.00;;
64959;SDS011;51487;52.266;10.542;2023-04-24T03:01:09;2.40;;;1.92;;
64959;SDS011;51487;52.266;10.542;2023-04-24T03:03:35;3.85;;;2.03;;
64959;SDS011;51487;52.266;10.542;2023-04-24T03:06:01;3.53;;;2.10;;
64959;SDS011;51487;52.266;10.542;2023-04-24T03:08:27;4.65;;;2.30;;
64959;SDS011;51487;52.266;10.542;2023-04-24T03:10:53;8.00;;;2.35;;
64959;SDS011;51487;52.266;10.542;2023-04-24T03:13:18;2.55;;;1.90;;
64959;SDS011;51487;52.266;10.542;2023-04-24T03:15:44;3.33;;;1.75;;
64959;SDS011;51487;52.266;10.542;2023-04-24T03:18:11;5.32;;;2.00;;
64959;SDS011;51487;52.266;10.542;2023-04-24T03:20:36;1.95;;;1.60;;
64959;SDS011;51487;52.266;10.542;2023-04-24T03:23:02;3.13;;;1.60;;
64959;SDS011;51487;52.266;10.542;2023-04-24T03:25:28;3.10;;;1.60;;
64959;SDS011;51487;52.266;10.542;2023-04-24T03:27:54;2.28;;;1.30;;
64959;SDS011;51487;52.266;10.542;2023-04-24T03:30:19;1.48;;;1.38;;
64959;SDS011;51487;52.266;10.542;2023-04-24T03:32:45;2.80;;;1.48;;
64959;SDS011;51487;52.266;10.542;2023-04-24T03:35:11;4.95;;;1.60;;
64959;SDS011;51487;52.266;10.542;2023-04-24T03:37:36;2.92;;;1.40;;
64959;SDS011;51487;52.266;10.542;2023-04-24T03:40:02;2.33;;;1.85;;
64959;SDS011;51487;52.266;10.542;2023-04-24T03:42:28;2.20;;;1.30;;
64959;SDS011;51487;52.266;10.542;2023-04-24T03:44:54;1.90;;;1.40;;
64959;SDS011;51487;52.266;10.542;2023-04-24T03:47:19;1.63;;;1.40;;
64959;SDS011;51487;52.266;10.542;2023-04-24T03:49:45;2.53;;;1.30;;
64959;SDS011;51487;52.266;10.542;2023-04-24T03:52:10;2.83;;;1.40;;
64959;SDS011;51487;52.266;10.542;2023-04-24T03:54:36;3.03;;;1.38;;
64959;SDS011;51487;52.266;10.542;2023-04-24T03:57:01;2.53;;;1.50;;
64959;SDS011;51487;52.266;10.542;2023-04-24T03:59:28;3.22;;;1.42;;
64959;SDS011;51487;52.266;10.542;2023-04-24T04:01:54;1.75;;;1.38;;
64959;SDS011;51487;52.266;10.542;2023-04-24T04:04:19;1.63;;;1.45;;
64959;SDS011;51487;52.266;10.542;2023-04-24T04:06:45;3.35;;;1.70;;
64959;SDS011;51487;52.266;10.542;2023-04-24T04:09:11;2.22;;;1.60;;
64959;SDS011;51487;52.266;10.542;2023-04-24T04:11:37;2.63;;;1.65;;
64959;SDS011;51487;52.266;10.542;2023-04-24T04:14:03;4.70;;;1.77;;
64959;SDS011;51487;52.266;10.542;2023-04-24T04:16:28;3.88;;;1.90;;
64959;SDS011;51487;52.266;10.542;2023-04-24T04:18:54;4.30;;;2.20;;
64959;SDS011;51487;52.266;10.542;2023-04-24T04:21:20;3.78;;;1.83;;
64959;SDS011;51487;52.266;10.542;2023-04-24T04:23:45;3.35;;;1.95;;
64959;SDS011;51487;52.266;10.542;2023-04-24T04:26:11;2.03;;;1.55;;
64959;SDS011;51487;52.266;10.542;2023-04-24T04:28:37;3.72;;;1.65;;
64959;SDS011;51487;52.266;10.542;2023-04-24T04:31:04;4.70;;;1.70;;
64959;SDS011;51487;52.266;10.542;2023-04-24T04:33:30;5.75;;;2.17;;
64959;SDS011;51487;52.266;10.542;2023-04-24T04:35:56;3.38;;;1.67;;
64959;SDS011;51487;52.266;10.542;2023-04-24T04:38:22;4.18;;;1.80;;
64959;SDS011;51487;52.266;10.542;2023-04-24T04:40:48;3.40;;;1.77;;
64959;SDS011;51487;52.266;10.542;2023-04-24T04:43:13;4.55;;;1.90;;
64959;SDS011;51487;52.266;10.542;2023-04-24T04:45:40;4.93;;;2.00;;
64959;SDS011;51487;52.266;10.542;2023-04-24T04:48:06;5.63;;;1.90;;
64959;SDS011;51487;52.266;10.542;2023-04-24T04:50:37;3.92;;;2.03;;
64959;SDS011;51487;52.266;10.542;2023-04-24T04:53:03;5.38;;;1.88;;
64959;SDS011;51487;52.266;10.542;2023-04-24T04:55:29;3.40;;;1.90;;
64959;SDS011;51487;52.266;10.542;2023-04-24T04:57:55;3.65;;;2.05;;
64959;SDS011;51487;52.266;10.542;2023-04-24T05:00:21;4.72;;;2.00;;
64959;SDS011;51487;52.266;10.542;2023-04-24T05:02:50;7.95;;;2.13;;
64959;SDS011;51487;52.266;10.542;2023-04-24T05:05:16;3.78;;;2.10;;
64959;SDS011;51487;52.266;10.542;2023-04-24T05:07:42;3.58;;;1.95;;
64959;SDS011;51487;52.266;10.542;2023-04-24T05:10:12;3.90;;;2.00;;
64959;SDS011;51487;52.266;10.542;2023-04-24T05:12:37;4.40;;;1.92;;
64959;SDS011;51487;52.266;10.542;2023-04-24T05:15:03;2.58;;;1.58;;
64959;SDS011;51487;52.266;10.542;2023-04-24T05:17:29;1.80;;;1.45;;
64959;SDS011;51487;52.266;10.542;2023-04-24T05:19:54;1.45;;;1.20;;
64959;SDS011;51487;52.266;10.542;2023-04-24T05:22:20;5.68;;;1.60;;
64959;SDS011;51487;52.266;10.542;2023-04-24T05:24:46;4.03;;;1.50;;
64959;SDS011;51487;52.266;10.542;2023-04-24T05:27:12;3.60;;;1.42;;
64959;SDS011;51487;52.266;10.542;2023-04-24T05:29:38;2.22;;;1.30;;
64959;SDS011;51487;52.266;10.542;2023-04-24T05:32:05;1.38;;;1.10;;
64959;SDS011;51487;52.266;10.542;2023-04-24T05:34:31;5.25;;;1.30;;
64959;SDS011;51487;52.266;10.542;2023-04-24T05:36:56;1.88;;;1.10;;
64959;SDS011;51487;52.266;10.542;2023-04-24T05:39:22;2.97;;;1.52;;
64959;SDS011;51487;52.266;10.542;2023-04-24T05:41:49;2.40;;;1.25;;
64959;SDS011;51487;52.266;10.542;2023-04-24T05:44:15;1.73;;;1.40;;
64959;SDS011;51487;52.266;10.542;2023-04-24T05:46:41;1.40;;;1.25;;
64959;SDS011;51487;52.266;10.542;2023-04-24T05:49:07;1.38;;;1.15;;
64959;SDS011;51487;52.266;10.542;2023-04-24T05:51:32;2.58;;;1.40;;
64959;SDS011;51487;52.266;10.542;2023-04-24T05:53:58;1.63;;;1.27;;
64959;SDS011;51487;52.266;10.542;2023-04-24T05:56:23;1.70;;;1.45;;
64959;SDS011;51487;52.266;10.542;2023-04-24T05:58:49;1.30;;;1.08;;
64959;SDS011;51487;52.266;10.542;2023-04-24T06:01:14;5.07;;;1.48;;
64959;SDS011;51487;52.266;10.542;2023-04-24T06:03:41;4.28;;;1.40;;
64959;SDS011;51487;52.266;10.542;2023-04-24T06:06:07;1.42;;;1.20;;
64959;SDS011;51487;52.266;10.542;2023-04-24T06:08:33;1.00;;;1.00;;
64959;SDS011;51487;52.266;10.542;2023-04-24T06:11:00;2.38;;;1.30;;
64959;SDS011;51487;52.266;10.542;2023-04-24T06:13:25;1.95;;;1.08;;
64959;SDS011;51487;52.266;10.542;2023-04-24T06:15:51;1.30;;;1.15;;
64959;SDS011;51487;52.266;10.542;2023-04-24T06:18:17;2.47;;;1.50;;
64959;SDS011;51487;52.266;10.542;2023-04-24T06:20:43;2.30;;;1.40;;
64959;SDS011;51487;52.266;10.542;2023-04-24T06:23:09;2.10;;;1.30;;
64959;SDS011;51487;52.266;10.542;2023-04-24T06:25:35;1.80;;;1.35;;
64959;SDS011;51487;52.266;10.542;2023-04-24T06:28:00;2.67;;;1.50;;
64959;SDS011;51487;52.266;10.542;2023-04-24T06:30:27;3.00;;;1.50;;
64959;SDS011;51487;52.266;10.542;2023-04-24T06:32:53;1.92;;;1.50;;
64959;SDS011;51487;52.266;10.542;2023-04-24T06:35:18;3.60;;;1.45;;
64959;SDS011;51487;52.266;10.542;2023-04-24T06:37:44;2.63;;;1.40;;
64959;SDS011;51487;52.266;10.542;2023-04-24T06:40:10;4.32;;;1.90;;
64959;SDS011;51487;52.266;10.542;2023-04-24T06:42:36;2.30;;;1.45;;
64959;SDS011;51487;52.266;10.542;2023-04-24T06:45:02;2.10;;;1.27;;
64959;SDS011;51487;52.266;10.542;2023-04-24T06:47:28;2.00;;;1.33;;
64959;SDS011;51487;52.266;10.542;2023-04-24T06:49:54;2.13;;;1.38;;
64959;SDS011;51487;52.266;10.542;2023-04-24T06:52:20;2.58;;;1.42;;
64959;SDS011;51487;52.266;10.542;2023-04-24T06:54:46;1.85;;;1.58;;
64959;SDS011;51487;52.266;10.542;2023-04-24T06:57:11;2.22;;;1.50;;
64959;SDS011;51487;52.266;10.542;2023-04-24T06:59:37;3.60;;;1.77;;
64959;SDS011;51487;52.266;10.542;2023-04-24T07:02:03;3.40;;;1.75;;
64959;SDS011;51487;52.266;10.542;2023-04-24T07:04:29;3.20;;;1.55;;
64959;SDS011;51487;52.266;10.542;2023-04-24T07:06:55;4.57;;;1.80;;
64959;SDS011;51487;52.266;10.542;2023-04-24T07:09:23;4.90;;;2.03;;
64959;SDS011;51487;52.266;10.542;2023-04-24T07:11:50;5.57;;;2.03;;
64959;SDS011;51487;52.266;10.542;2023-04-24T07:14:19;4.07;;;2.03;;
64959;SDS011;51487;52.266;10.542;2023-04-24T07:16:45;4.35;;;2.20;;
64959;SDS011;51487;52.266;10.542;2023-04-24T07:19:12;5.93;;;2.13;;
64959;SDS011;51487;52.266;10.542;2023-04-24T07:21:38;4.32;;;2.00;;
64959;SDS011;51487;52.266;10.542;2023-04-24T07:24:04;5.97;;;2.35;;
64959;SDS011;51487;52.266;10.542;2023-04-24T07:26:30;4.05;;;1.88;;
64959;SDS011;51487;52.266;10.542;2023-04-24T07:28:56;4.13;;;1.88;;
64959;SDS011;51487;52.266;10.542;2023-04-24T07:31:22;2.90;;;1.33;;
64959;SDS011;51487;52.266;10.542;2023-04-24T07:33:48;1.48;;;1.38;;
64959;SDS011;51487;52.266;10.542;2023-04-24T07:36:13;1.23;;;1.10;;
64959;SDS011;51487;52.266;10.542;2023-04-24T07:38:43;3.22;;;1.65;;
64959;SDS011;51487;52.266;10.542;2023-04-24T07:41:12;1.20;;;1.10;;
64959;SDS011;51487;52.266;10.542;2023-04-24T07:43:41;3.22;;;1.35;;
64959;SDS011;51487;52.266;10.542;2023-04-24T07:46:07;1.55;;;1.17;;
64959;SDS011;51487;52.266;10.542;2023-04-24T07:48:35;1.67;;;1.27;;
64959;SDS011;51487;52.266;10.542;2023-04-24T07:51:01;1.52;;;1.38;;
64959;SDS011;51487;52.266;10.542;2023-04-24T07:53:26;2.28;;;1.45;;
64959;SDS011;51487;52.266;10.542;2023-04-24T07:55:53;3.42;;;1.42;;
64959;SDS011;51487;52.266;10.542;2023-04-24T07:58:21;1.52;;;1.42;;
64959;SDS011;51487;52.266;10.542;2023-04-24T08:00:46;3.47;;;1.58;;
64959;SDS011;51487;52.266;10.542;2023-04-24T08:03:12;2.38;;;1.63;;
64959;SDS011;51487;52.266;10.542;2023-04-24T08:05:38;3.20;;;1.50;;
64959;SDS011;51487;52.266;10.542;2023-04-24T08:08:04;2.20;;;1.60;;
64959;SDS011;51487;52.266;10.542;2023-04-24T08:10:29;1.90;;;1.70;;
64959;SDS011;51487;52.266;10.542;2023-04-24T08:12:55;4.85;;;1.60;;
64959;SDS011;51487;52.266;10.542;2023-04-24T08:15:21;6.20;;;1.80;;
64959;SDS011;51487;52.266;10.542;2023-04-24T08:17:46;2.22;;;1.65;;
64959;SDS011;51487;52.266;10.542;2023-04-24T08:20:12;2.33;;;1.65;;
64959;SDS011;51487;52.266;10.542;2023-04-24T08:22:41;2.55;;;1.60;;
64959;SDS011;51487;52.266;10.542;2023-04-24T08:25:08;1.83;;;1.67;;
64959;SDS011;51487;52.266;10.542;2023-04-24T08:27:35;3.05;;;1.40;;
64959;SDS011;51487;52.266;10.542;2023-04-24T08:30:02;2.50;;;1.70;;
64959;SDS011;51487;52.266;10.542;2023-04-24T08:32:29;2.95;;;1.65;;
64959;SDS011;51487;52.266;10.542;2023-04-24T08:34:55;1.55;;;1.40;;
64959;SDS011;51487;52.266;10.542;2023-04-24T08:37:22;3.25;;;1.55;;
64959;SDS011;51487;52.266;10.542;2023-04-24T08:39:48;2.33;;;1.67;;
64959;SDS011;51487;52.266;10.542;2023-04-24T08:42:15;4.55;;;1.85;;
64959;SDS011;51487;52.266;10.542;2023-04-24T08:44:43;3.70;;;1.75;;
64959;SDS011;51487;52.266;10.542;2023-04-24T08:47:10;3.28;;;1.90;;
64959;SDS011;51487;52.266;10.542;2023-04-24T08:49:37;1.63;;;1.50;;
64959;SDS011;51487;52.266;10.542;2023-04-24T08:52:07;3.47;;;1.83;;
64959;SDS011;51487;52.266;10.542;2023-04-24T08:54:36;2.00;;;1.75;;
64959;SDS011;51487;52.266;10.542;2023-04-24T08:57:02;2.33;;;1.67;;
64959;SDS011;51487;52.266;10.542;2023-04-24T08:59:31;3.17;;;2.10;;
64959;SDS011;51487;52.266;10.542;2023-04-24T09:01:58;1.92;;;1.77;;
64959;SDS011;51487;52.266;10.542;2023-04-24T09:04:28;3.20;;;2.08;;
64959;SDS011;51487;52.266;10.542;2023-04-24T09:06:55;2.50;;;2.10;;
64959;SDS011;51487;52.266;10.542;2023-04-24T09:09:22;1.92;;;1.70;;
64959;SDS011;51487;52.266;10.542;2023-04-24T09:11:50;3.35;;;1.92;;
64959;SDS011;51487;52.266;10.542;2023-04-24T09:14:19;2.78;;;2.10;;
64959;SDS011;51487;52.266;10.542;2023-04-24T09:16:45;6.07;;;2.25;;
64959;SDS011;51487;52.266;10.542;2023-04-24T09:19:12;4.65;;;2.20;;
64959;SDS011;51487;52.266;10.542;2023-04-24T09:21:38;2.25;;;2.00;;
64959;SDS011;51487;52.266;10.542;2023-04-24T09:24:06;5.80;;;2.00;;
64959;SDS011;51487;52.266;10.542;2023-04-24T09:26:42;1.88;;;1.70;;
64959;SDS011;51487;52.266;10.542;2023-04-24T09:29:13;2.80;;;1.90;;
64959;SDS011;51487;52.266;10.542;2023-04-24T09:31:44;3.20;;;2.17;;
64959;SDS011;51487;52.266;10.542;2023-04-24T09:34:11;3.20;;;2.15;;
64959;SDS011;51487;52.266;10.542;2023-04-24T09:36:38;2.00;;;1.63;;
64959;SDS011;51487;52.266;10.542;2023-04-24T09:39:10;4.65;;;2.50;;
64959;SDS011;51487;52.266;10.542;2023-04-24T09:41:58;3.58;;;2.20;;
64959;SDS011;51487;52.266;10.542;2023-04-24T09:44:27;3.80;;;2.00;;
64959;SDS011;51487;52.266;10.542;2023-04-24T09:46:54;4.00;;;2.08;;
64959;SDS011;51487;52.266;10.542;2023-04-24T09:49:23;2.35;;;1.80;;
64959;SDS011;51487;52.266;10.542;2023-04-24T09:51:51;2.85;;;2.15;;
64959;SDS011;51487;52.266;10.542;2023-04-24T09:54:20;2.20;;;1.95;;
64959;SDS011;51487;52.266;10.542;2023-04-24T09:56:47;2.45;;;1.90;;
64959;SDS011;51487;52.266;10.542;2023-04-24T09:59:16;1.85;;;1.70;;
64959;SDS011;51487;52.266;10.542;2023-04-24T10:01:43;3.08;;;2.10;;
64959;SDS011;51487;52.266;10.542;2023-04-24T10:04:16;2.53;;;1.98;;
64959;SDS011;51487;52.266;10.542;2023-04-24T10:06:50;5.28;;;1.98;;
64959;SDS011;51487;52.266;10.542;2023-04-24T10:09:19;2.35;;;1.85;;
64959;SDS011;51487;52.266;10.542;2023-04-24T10:11:48;2.20;;;2.00;;
64959;SDS011;51487;52.266;10.542;2023-04-24T10:14:17;5.43;;;2.25;;
64959;SDS011;51487;52.266;10.542;2023-04-24T10:16:53;3.42;;;2.13;;
64959;SDS011;51487;52.266;10.542;2023-04-24T10:19:21;2.28;;;1.90;;
64959;SDS011;51487;52.266;10.542;2023-04-24T10:21:51;3.15;;;2.00;;
64959;SDS011;51487;52.266;10.542;2023-04-24T10:24:19;2.80;;;1.80;;
64959;SDS011;51487;52.266;10.542;2023-04-24T10:26:48;5.68;;;2.17;;
64959;SDS011;51487;52.266;10.542;2023-04-24T10:29:14;2.83;;;2.10;;
64959;SDS011;51487;52.266;10.542;2023-04-24T10:31:43;2.78;;;1.73;;
64959;SDS011;51487;52.266;10.542;2023-04-24T10:34:10;2.65;;;1.90;;
64959;SDS011;51487;52.266;10.542;2023-04-24T10:36:40;3.25;;;2.30;;
64959;SDS011;51487;52.266;10.542;2023-04-24T10:39:11;3.60;;;2.10;;
64959;SDS011;51487;52.266;10.542;2023-04-24T10:41:42;3.05;;;2.20;;
64959;SDS011;51487;52.266;10.542;2023-04-24T10:44:09;2.17;;;1.98;;
64959;SDS011;51487;52.266;10.542;2023-04-24T10:46:38;2.60;;;2.30;;
64959;SDS011;51487;52.266;10.542;2023-04-24T10:49:07;2.05;;;1.80;;
64959;SDS011;51487;52.266;10.542;2023-04-24T10:51:44;2.15;;;1.95;;
64959;SDS011;51487;52.266;10.542;2023-04-24T10:59:44;1.98;;;1.48;;
64959;SDS011;51487;52.266;10.542;2023-04-24T11:02:10;1.95;;;1.48;;
64959;SDS011;51487;52.266;10.542;2023-04-24T11:04:36;1.73;;;1.50;;
64959;SDS011;51487;52.266;10.542;2023-04-24T11:07:04;4.78;;;1.70;;
64959;SDS011;51487;52.266;10.542;2023-04-24T11:09:30;1.98;;;1.63;;
64959;SDS011;51487;52.266;10.542;2023-04-24T11:12:07;2.65;;;1.40;;
64959;SDS011;51487;52.266;10.542;2023-04-24T11:20:09;2.88;;;1.50;;
64959;SDS011;51487;52.266;10.542;2023-04-24T11:22:37;2.75;;;1.70;;
64959;SDS011;51487;52.266;10.542;2023-04-24T11:25:07;1.58;;;1.40;;
64959;SDS011;51487;52.266;10.542;2023-04-24T11:27:41;3.88;;;1.40;;
64959;SDS011;51487;52.266;10.542;2023-04-24T11:30:09;3.03;;;1.60;;
64959;SDS011;51487;52.266;10.542;2023-04-24T11:32:40;3.60;;;1.55;;
64959;SDS011;51487;52.266;10.542;2023-04-24T11:35:15;2.95;;;1.45;;
64959;SDS011;51487;52.266;10.542;2023-04-24T11:37:47;1.38;;;1.25;;
64959;SDS011;51487;52.266;10.542;2023-04-24T11:40:15;1.80;;;1.30;;
64959;SDS011;51487;52.266;10.542;2023-04-24T11:42:43;1.50;;;1.40;;
64959;SDS011;51487;52.266;10.542;2023-04-24T11:45:11;1.42;;;1.30;;
64959;SDS011;51487;52.266;10.542;2023-04-24T11:47:42;1.52;;;1.38;;
64959;SDS011;51487;52.266;10.542;2023-04-24T11:50:10;2.38;;;1.25;;
64959;SDS011;51487;52.266;10.542;2023-04-24T11:52:42;2.25;;;1.38;;
64959;SDS011;51487;52.266;10.542;2023-04-24T11:57:39;2.20;;;1.33;;
64959;SDS011;51487;52.266;10.542;2023-04-24T12:00:14;2.13;;;1.40;;
64959;SDS011;51487;52.266;10.542;2023-04-24T12:02:50;3.45;;;1.30;;
64959;SDS011;51487;52.266;10.542;2023-04-24T12:05:20;2.88;;;1.50;;
64959;SDS011;51487;52.266;10.542;2023-04-24T12:07:53;1.98;;;1.50;;
64959;SDS011;51487;52.266;10.542;2023-04-24T12:10:23;3.15;;;1.73;;
64959;SDS011;51487;52.266;10.542;2023-04-24T12:12:51;1.55;;;1.45;;
64959;SDS011;51487;52.266;10.542;2023-04-24T12:15:19;2.30;;;1.50;;
64959;SDS011;51487;52.266;10.542;2023-04-24T12:17:46;2.28;;;1.40;;
64959;SDS011;51487;52.266;10.542;2023-04-24T12:20:12;1.85;;;1.67;;
64959;SDS011;51487;52.266;10.542;2023-04-24T12:22:46;1.83;;;1.60;;
64959;SDS011;51487;52.266;10.542;2023-04-24T12:25:42;2.38;;;1.50;;
64959;SDS011;51487;52.266;10.542;2023-04-24T12:28:13;2.17;;;1.92;;
64959;SDS011;51487;52.266;10.542;2023-04-24T12:30:47;4.53;;;1.70;;
64959;SDS011;51487;52.266;10.542;2023-04-24T12:33:19;1.52;;;1.42;;
64959;SDS011;51487;52.266;10.542;2023-04-24T12:35:47;2.55;;;1.42;;
64959;SDS011;51487;52.266;10.542;2023-04-24T12:38:16;2.63;;;1.80;;
64959;SDS011;51487;52.266;10.542;2023-04-24T12:41:00;2.30;;;1.52;;
64959;SDS011;51487;52.266;10.542;2023-04-24T12:43:29;3.13;;;1.80;;
64959;SDS011;51487;52.266;10.542;2023-04-24T12:45:54;1.52;;;1.42;;
64959;SDS011;51487;52.266;10.542;2023-04-24T12:48:20;2.38;;;1.70;;
64959;SDS011;51487;52.266;10.542;2023-04-24T12:50:47;2.20;;;1.40;;
64959;SDS011;51487;52.266;10.542;2023-04-24T12:53:12;2.03;;;1.80;;
64959;SDS011;51487;52.266;10.542;2023-04-24T12:55:39;2.15;;;1.40;;
64959;SDS011;51487;52.266;10.542;2023-04-24T12:58:05;1.83;;;1.20;;
64959;SDS011;51487;52.266;10.542;2023-04-24T13:00:30;1.17;;;1.13;;
64959;SDS011;51487;52.266;10.542;2023-04-24T13:02:56;1.95;;;1.20;;
64959;SDS011;51487;52.266;10.542;2023-04-24T13:05:22;0.90;;;0.90;;
64959;SDS011;51487;52.266;10.542;2023-04-24T13:07:47;2.33;;;0.90;;
64959;SDS011;51487;52.266;10.542;2023-04-24T13:10:12;0.75;;;0.75;;
64959;SDS011;51487;52.266;10.542;2023-04-24T13:12:38;0.80;;;0.80;;
64959;SDS011;51487;52.266;10.542;2023-04-24T13:15:05;0.93;;;0.70;;
64959;SDS011;51487;52.266;10.542;2023-04-24T13:17:33;1.20;;;0.90;;
64959;SDS011;51487;52.266;10.542;2023-04-24T13:19:58;0.90;;;0.90;;
64959;SDS011;51487;52.266;10.542;2023-04-24T13:22:24;0.88;;;0.88;;
64959;SDS011;51487;52.266;10.542;2023-04-24T13:24:50;1.00;;;1.00;;
64959;SDS011;51487;52.266;10.542;2023-04-24T13:27:16;1.08;;;0.90;;
64959;SDS011;51487;52.266;10.542;2023-04-24T13:29:42;1.08;;;1.00;;
64959;SDS011;51487;52.266;10.542;2023-04-24T13:32:08;1.00;;;1.00;;
64959;SDS011;51487;52.266;10.542;2023-04-24T13:34:34;1.20;;;1.10;;
64959;SDS011;51487;52.266;10.542;2023-04-24T13:37:00;1.00;;;1.00;;
64959;SDS011;51487;52.266;10.542;2023-04-24T13:39:28;1.63;;;1.30;;
64959;SDS011;51487;52.266;10.542;2023-04-24T13:41:54;1.85;;;1.40;;
64959;SDS011;51487;52.266;10.542;2023-04-24T13:44:20;1.40;;;1.30;;
64959;SDS011;51487;52.266;10.542;2023-04-24T13:46:48;1.33;;;1.20;;
64959;SDS011;51487;52.266;10.542;2023-04-24T13:49:17;1.05;;;1.05;;
64959;SDS011;51487;52.266;10.542;2023-04-24T13:51:43;3.35;;;1.50;;
64959;SDS011;51487;52.266;10.542;2023-04-24T13:54:08;1.00;;;1.00;;
64959;SDS011;51487;52.266;10.542;2023-04-24T13:56:34;2.90;;;1.02;;
64959;SDS011;51487;52.266;10.542;2023-04-24T13:59:00;1.60;;;1.50;;
64959;SDS011;51487;52.266;10.542;2023-04-24T14:01:26;1.75;;;1.52;;
64959;SDS011;51487;52.266;10.542;2023-04-24T14:03:52;2.13;;;1.60;;
64959;SDS011;51487;52.266;10.542;2023-04-24T14:06:19;2.92;;;1.40;;
64959;SDS011;51487;52.266;10.542;2023-04-24T14:08:45;1.42;;;1.33;;
64959;SDS011;51487;52.266;10.542;2023-04-24T14:11:12;2.05;;;1.30;;
64959;SDS011;51487;52.266;10.542;2023-04-24T14:13:38;1.55;;;1.30;;
64959;SDS011;51487;52.266;10.542;2023-04-24T14:16:06;1.40;;;1.30;;
64959;SDS011;51487;52.266;10.542;2023-04-24T14:18:32;1.40;;;1.27;;
64959;SDS011;51487;52.266;10.542;2023-04-24T14:20:57;1.27;;;1.20;;
64959;SDS011;51487;52.266;10.542;2023-04-24T14:23:24;2.33;;;1.52;;
64959;SDS011;51487;52.266;10.542;2023-04-24T14:25:49;1.50;;;1.40;;
64959;SDS011;51487;52.266;10.542;2023-04-24T14:28:17;2.25;;;1.92;;
64959;SDS011;51487;52.266;10.542;2023-04-24T14:30:44;1.50;;;1.40;;
64959;SDS011;51487;52.266;10.542;2023-04-24T14:33:10;1.05;;;1.05;;
64959;SDS011;51487;52.266;10.542;2023-04-24T14:35:36;1.95;;;1.40;;
64959;SDS011;51487;52.266;10.542;2023-04-24T14:38:02;1.50;;;1.40;;
64959;SDS011;51487;52.266;10.542;2023-04-24T14:40:28;2.50;;;1.20;;
64959;SDS011;51487;52.266;10.542;2023-04-24T14:42:53;1.25;;;1.10;;
64959;SDS011;51487;52.266;10.542;2023-04-24T14:45:19;3.08;;;1.00;;